Time;durP1;ratioP1;P1;durP2;ratioP2;P2;SDS_P1;SDS_P2;PMS_P1;PMS_P2;Temp;Humidity;BMP_temperature;BMP_pressure;BME280_temperature;BME280_humidity;BME280_pressure;Samples;Min_cycle;Max_cycle;Signal;HPM_P1;HPM_P2
2022/12/31 00:00:12;;;;;;;;;;;15.80;99.90;;;;;;7337613;19;110420;-92
2022/12/31 00:02:39;;;;;;;;;;;15.80;99.90;;;;;;7337017;19;108349;-94
2022/12/31 00:05:06;;;;;;;;;;;15.90;99.90;;;;;;7341160;19;109606;-92
2022/12/31 00:07:34;;;;;;;;;;;15.80;99.90;;;;;;7340647;19;110217;-94
2022/12/31 00:10:00;;;;;;;;;;;15.90;99.90;;;;;;7345655;19;109448;-93
2022/12/31 00:12:27;;;;;;;;;;;15.90;99.90;;;;;;7341177;19;110830;-93
2022/12/31 00:14:54;;;;;;;;;;;15.90;99.90;;;;;;7346292;19;110265;-91
2022/12/31 00:17:21;;;;;;;;;;;15.90;99.90;;;;;;7339352;19;109773;-91
2022/12/31 00:19:48;;;;;;;;;;;15.80;99.90;;;;;;7342194;19;113094;-92
2022/12/31 00:22:15;;;;;;;;;;;15.80;99.90;;;;;;7339274;19;108455;-91
2022/12/31 00:24:42;;;;;;;;;;;15.80;99.90;;;;;;7341946;19;109313;-90
2022/12/31 00:27:09;;;;;;;;;;;15.80;99.90;;;;;;7341418;19;112844;-91
2022/12/31 00:29:35;;;;;;;;;;;15.80;99.90;;;;;;7340509;19;108513;-91
2022/12/31 00:32:02;;;;;;;;;;;15.90;99.90;;;;;;7342655;19;111670;-91
2022/12/31 00:34:29;;;;;;;;;;;15.90;99.90;;;;;;7339923;19;110303;-92
2022/12/31 00:36:56;;;;;;;;;;;15.90;99.90;;;;;;7344520;19;108297;-91
2022/12/31 00:39:23;;;;;;;;;;;15.90;99.90;;;;;;7339017;19;110335;-91
2022/12/31 00:41:50;;;;;;;;;;;15.90;99.90;;;;;;7343519;19;108622;-92
2022/12/31 00:44:17;;;;;;;;;;;15.90;99.90;;;;;;7340062;19;111704;-91
2022/12/31 00:46:44;;;;;;;;;;;15.90;99.90;;;;;;7340994;19;109209;-93
2022/12/31 00:49:10;;;;;;;;;;;15.90;99.90;;;;;;7343110;19;109091;-94
2022/12/31 00:51:37;;;;;;;;;;;15.90;99.90;;;;;;7340458;19;109784;-93
2022/12/31 00:54:04;;;;;;;;;;;15.90;99.90;;;;;;7342403;19;111105;-92
2022/12/31 00:56:31;;;;;;;;;;;16.00;99.90;;;;;;7349008;19;108925;-93
2022/12/31 00:58:58;;;;;;;;;;;16.00;99.90;;;;;;7342282;19;112547;-90
2022/12/31 01:01:25;;;;;;;;;;;16.00;99.90;;;;;;7342007;19;108504;-89
2022/12/31 01:03:54;;;;;;;;;;;16.00;99.90;;;;;;7345355;19;111400;-89
2022/12/31 01:06:21;;;;;;;;;;;16.00;99.90;;;;;;7341723;19;110094;-89
2022/12/31 01:09:01;;;;;;;;;;;16.00;99.90;;;;;;7345982;19;111282;-89
2022/12/31 01:11:55;;;;;;;;;;;16.00;99.90;;;;;;7370394;19;110553;-89
2022/12/31 01:14:22;;;;;;;;;;;16.00;99.90;;;;;;7345880;19;112479;-91
2022/12/31 01:16:50;;;;;;;;;;;16.10;99.90;;;;;;7344709;19;108555;-90
2022/12/31 01:19:19;;;;;;;;;;;16.10;99.90;;;;;;7349075;19;109345;-88
2022/12/31 01:21:46;;;;;;;;;;;16.00;99.90;;;;;;7345865;19;109773;-89
2022/12/31 01:24:16;;;;;;;;;;;16.00;99.90;;;;;;7345563;19;108787;-89
2022/12/31 01:26:43;;;;;;;;;;;16.10;99.90;;;;;;7345516;19;110539;-90
2022/12/31 01:29:10;;;;;;;;;;;15.90;99.90;;;;;;7343873;19;108379;-88
2022/12/31 01:31:37;;;;;;;;;;;15.90;99.90;;;;;;7341424;19;109341;-89
2022/12/31 01:34:05;;;;;;;;;;;15.80;99.90;;;;;;7342673;19;110658;-89
2022/12/31 01:36:33;;;;;;;;;;;15.70;99.90;;;;;;7343600;19;108695;-89
2022/12/31 01:39:01;;;;;;;;;;;15.60;99.90;;;;;;7344540;19;112354;-89
2022/12/31 01:41:29;;;;;;;;;;;15.50;99.90;;;;;;7347768;19;113109;-88
2022/12/31 01:44:00;;;;;;;;;;;15.40;99.90;;;;;;7344305;19;111415;-89
2022/12/31 01:46:36;;;;;;;;;;;15.40;99.90;;;;;;7343899;19;109952;-89
2022/12/31 01:49:21;;;;;;;;;;;15.30;99.90;;;;;;7343013;19;108558;-89
2022/12/31 01:51:50;;;;;;;;;;;15.30;99.90;;;;;;7345180;19;109227;-90
2022/12/31 01:54:20;;;;;;;;;;;15.30;99.90;;;;;;7341949;19;113980;-88
2022/12/31 01:56:47;;;;;;;;;;;15.30;99.90;;;;;;7344875;19;108291;-89
2022/12/31 01:59:15;;;;;;;;;;;15.20;99.90;;;;;;7343902;19;109278;-90
2022/12/31 02:01:43;;;;;;;;;;;15.20;99.90;;;;;;7341025;19;110925;-89
2022/12/31 02:04:11;;;;;;;;;;;15.10;99.90;;;;;;7349423;19;108335;-89
2022/12/31 02:06:56;;;;;;;;;;;15.20;99.90;;;;;;7341230;19;112052;-88
2022/12/31 02:09:24;;;;;;;;;;;15.10;99.90;;;;;;7343085;19;108550;-89
2022/12/31 02:11:51;;;;;;;;;;;15.10;99.90;;;;;;7342593;19;109713;-89
2022/12/31 02:14:24;;;;;;;;;;;15.00;99.90;;;;;;7338837;19;128554;-89
2022/12/31 02:16:57;;;;;;;;;;;15.10;99.90;;;;;;7341582;19;108501;-88
2022/12/31 02:19:43;;;;;;;;;;;15.00;99.90;;;;;;7340493;19;109175;-88
2022/12/31 02:22:13;;;;;;;;;;;15.00;99.90;;;;;;7341973;19;110185;-88
2022/12/31 02:24:59;;;;;;;;;;;15.00;99.90;;;;;;7340985;19;108415;-89
2022/12/31 02:27:58;;;;;;;;;;;14.90;99.90;;;;;;7343317;19;111717;-89
2022/12/31 02:30:27;;;;;;;;;;;14.90;99.90;;;;;;7338472;19;108664;-89
2022/12/31 02:33:00;;;;;;;;;;;14.90;99.90;;;;;;7340981;19;109657;-89
2022/12/31 02:35:31;;;;;;;;;;;14.90;99.90;;;;;;7341068;19;110577;-89
2022/12/31 02:38:06;;;;;;;;;;;14.90;99.90;;;;;;7341537;19;109338;-91
2022/12/31 02:40:34;;;;;;;;;;;14.90;99.90;;;;;;7343295;19;112381;-88
2022/12/31 02:43:01;;;;;;;;;;;14.90;99.90;;;;;;7340520;19;112456;-89
2022/12/31 02:45:35;;;;;;;;;;;14.90;99.90;;;;;;7342290;19;111778;-89
2022/12/31 02:48:09;;;;;;;;;;;14.80;99.90;;;;;;7347664;19;111963;-89
2022/12/31 02:50:39;;;;;;;;;;;14.90;99.90;;;;;;7342464;19;108534;-88
2022/12/31 02:53:06;;;;;;;;;;;14.90;99.90;;;;;;7342630;19;109164;-89
2022/12/31 02:55:48;;;;;;;;;;;14.90;99.90;;;;;;7340284;19;113521;-89
2022/12/31 02:58:18;;;;;;;;;;;14.90;99.90;;;;;;7342900;19;108988;-90
2022/12/31 03:03:36;;;;;;;;;;;14.90;99.90;;;;;;7341302;19;109515;-89
2022/12/31 03:06:04;;;;;;;;;;;14.80;99.90;;;;;;7341630;19;111359;-89
2022/12/31 03:09:11;;;;;;;;;;;14.90;99.90;;;;;;7340122;19;108752;-90
2022/12/31 03:12:45;;;;;;;;;;;14.90;99.90;;;;;;7345434;19;109272;-89
2022/12/31 03:14:05;;;;;;;;;;;14.90;99.90;;;;;;7341360;19;109302;-89
2022/12/31 03:16:33;;;;;;;;;;;14.90;99.90;;;;;;7339708;19;109415;-90
2022/12/31 03:27:16;;;;;;;;;;;15.30;99.90;;;;;;7340078;19;108410;-88
2022/12/31 03:29:43;;;;;;;;;;;15.30;99.90;;;;;;7338180;19;109535;-88
2022/12/31 03:32:10;;;;;;;;;;;15.40;99.90;;;;;;7340846;19;112911;-88
2022/12/31 03:34:37;;;;;;;;;;;15.40;99.90;;;;;;7343064;19;108727;-89
2022/12/31 03:37:04;;;;;;;;;;;15.50;99.90;;;;;;7337537;19;113306;-88
2022/12/31 03:39:31;;;;;;;;;;;15.60;99.90;;;;;;7342707;19;108804;-87
2022/12/31 03:41:58;;;;;;;;;;;15.60;99.90;;;;;;7349049;19;112140;-90
2022/12/31 03:44:25;;;;;;;;;;;15.60;99.90;;;;;;7346141;19;110734;-89
2022/12/31 03:46:52;;;;;;;;;;;15.60;99.90;;;;;;7348331;19;108989;-90
2022/12/31 03:49:19;;;;;;;;;;;15.80;99.90;;;;;;7345432;19;111806;-89
2022/12/31 03:51:46;;;;;;;;;;;15.90;99.90;;;;;;7348876;19;113311;-88
2022/12/31 03:54:13;;;;;;;;;;;16.00;99.90;;;;;;7345454;19;108581;-89
2022/12/31 03:56:40;;;;;;;;;;;16.00;99.90;;;;;;7351881;19;112050;-89
2022/12/31 03:59:07;;;;;;;;;;;16.00;99.90;;;;;;7347398;19;108862;-89
2022/12/31 04:01:34;;;;;;;;;;;16.10;99.90;;;;;;7344505;19;110184;-89
2022/12/31 04:04:01;;;;;;;;;;;16.20;99.90;;;;;;7346972;19;113004;-90
2022/12/31 04:06:28;;;;;;;;;;;16.10;99.90;;;;;;7346672;19;108544;-90
2022/12/31 04:08:55;;;;;;;;;;;16.20;99.90;;;;;;7347626;19;112281;-89
2022/12/31 04:11:22;;;;;;;;;;;16.30;99.90;;;;;;7347151;19;113045;-89
2022/12/31 04:13:49;;;;;;;;;;;16.30;99.90;;;;;;7345566;19;108519;-89
2022/12/31 04:16:15;;;;;;;;;;;16.30;99.90;;;;;;7349344;19;111526;-88
2022/12/31 04:18:42;;;;;;;;;;;16.30;99.90;;;;;;7350863;19;110384;-90
2022/12/31 04:21:09;;;;;;;;;;;16.40;99.90;;;;;;7346782;19;110649;-90
2022/12/31 04:23:36;;;;;;;;;;;16.40;99.90;;;;;;7347082;19;111710;-89
2022/12/31 04:26:03;;;;;;;;;;;16.50;99.90;;;;;;7346421;19;108659;-89
2022/12/31 04:28:30;;;;;;;;;;;16.40;99.90;;;;;;7344307;19;108722;-88
2022/12/31 04:30:57;;;;;;;;;;;16.50;99.90;;;;;;7343663;19;113056;-89
2022/12/31 04:33:24;;;;;;;;;;;16.60;99.90;;;;;;7344267;19;108979;-88
2022/12/31 04:35:51;;;;;;;;;;;16.60;99.90;;;;;;7347041;19;110163;-89
2022/12/31 04:38:19;;;;;;;;;;;16.70;99.90;;;;;;7344557;19;109992;-89
2022/12/31 04:41:31;;;;;;;;;;;16.80;99.90;;;;;;7352325;19;108452;-89
2022/12/31 04:43:33;;;;;;;;;;;16.80;99.90;;;;;;7343898;19;110539;-88
2022/12/31 04:46:00;;;;;;;;;;;16.80;99.90;;;;;;7343639;19;108472;-89
2022/12/31 04:48:27;;;;;;;;;;;16.90;99.90;;;;;;7345847;19;109464;-89
2022/12/31 04:50:54;;;;;;;;;;;16.90;99.90;;;;;;7345016;19;113644;-89
2022/12/31 04:53:21;;;;;;;;;;;16.90;99.90;;;;;;7344636;19;108794;-89
2022/12/31 04:55:48;;;;;;;;;;;16.90;99.90;;;;;;7347924;19;111929;-91
2022/12/31 04:58:15;;;;;;;;;;;17.00;99.90;;;;;;7343026;19;112043;-89
2022/12/31 05:00:44;;;;;;;;;;;17.00;99.90;;;;;;7348939;19;108343;-89
2022/12/31 05:03:12;;;;;;;;;;;17.00;99.90;;;;;;7344930;19;110544;-88
2022/12/31 05:05:41;;;;;;;;;;;17.00;99.90;;;;;;7348345;19;108298;-89
2022/12/31 05:08:09;;;;;;;;;;;17.00;99.90;;;;;;7346371;19;110183;-89
2022/12/31 05:10:39;;;;;;;;;;;16.90;99.90;;;;;;7342287;19;113741;-90
2022/12/31 05:13:06;;;;;;;;;;;16.90;99.90;;;;;;7346167;19;109313;-90
2022/12/31 05:15:33;;;;;;;;;;;17.00;99.90;;;;;;7344424;19;108988;-89
2022/12/31 05:18:00;;;;;;;;;;;17.00;99.90;;;;;;7345478;19;110121;-90
2022/12/31 05:20:27;;;;;;;;;;;17.10;99.90;;;;;;7345360;19;108804;-90
2022/12/31 05:22:54;;;;;;;;;;;17.10;99.90;;;;;;7352695;19;108500;-89
2022/12/31 05:25:21;;;;;;;;;;;17.10;99.90;;;;;;7343561;19;108568;-91
2022/12/31 05:27:48;;;;;;;;;;;17.30;99.90;;;;;;7344628;19;112375;-89
2022/12/31 05:30:16;;;;;;;;;;;17.20;99.90;;;;;;7341979;19;110455;-90
2022/12/31 05:32:44;;;;;;;;;;;17.20;99.90;;;;;;7345306;19;110293;-91
2022/12/31 05:35:11;;;;;;;;;;;17.50;99.90;;;;;;7345283;19;108995;-89
2022/12/31 05:37:38;;;;;;;;;;;17.40;99.90;;;;;;7343064;19;110247;-89
2022/12/31 05:40:05;;;;;;;;;;;17.60;99.90;;;;;;7344607;19;108572;-90
2022/12/31 05:42:32;;;;;;;;;;;17.50;99.90;;;;;;7346978;19;112736;-89
2022/12/31 05:44:59;;;;;;;;;;;17.60;99.90;;;;;;7351403;19;110737;-91
2022/12/31 05:47:26;;;;;;;;;;;17.50;99.90;;;;;;7345795;19;108093;-90
2022/12/31 05:49:53;;;;;;;;;;;17.50;99.90;;;;;;7342763;19;110123;-90
2022/12/31 05:52:20;;;;;;;;;;;17.50;99.90;;;;;;7342394;19;108748;-91
2022/12/31 05:54:47;;;;;;;;;;;17.50;99.90;;;;;;7347663;19;110426;-89
2022/12/31 05:57:14;;;;;;;;;;;17.50;99.90;;;;;;7343046;19;110505;-88
2022/12/31 05:59:41;;;;;;;;;;;17.60;99.90;;;;;;7343239;19;109557;-90
2022/12/31 06:02:08;;;;;;;;;;;17.70;99.90;;;;;;7342735;19;109068;-90
2022/12/31 06:04:35;;;;;;;;;;;17.60;99.90;;;;;;7341069;19;110657;-91
2022/12/31 06:07:02;;;;;;;;;;;17.70;99.90;;;;;;7348809;19;108321;-89
2022/12/31 06:09:29;;;;;;;;;;;17.60;99.90;;;;;;7341979;19;113547;-90
2022/12/31 06:11:56;;;;;;;;;;;17.60;99.90;;;;;;7344091;19;108846;-89
2022/12/31 06:14:23;;;;;;;;;;;17.50;99.90;;;;;;7342187;19;108966;-90
2022/12/31 06:16:49;;;;;;;;;;;17.60;99.90;;;;;;7341060;19;110506;-90
2022/12/31 06:19:16;;;;;;;;;;;17.60;99.90;;;;;;7341407;19;110364;-88
2022/12/31 06:21:43;;;;;;;;;;;17.60;99.90;;;;;;7344159;19;110493;-90
2022/12/31 06:24:10;;;;;;;;;;;17.60;99.90;;;;;;7343764;19;113344;-90
2022/12/31 06:26:38;;;;;;;;;;;17.70;99.90;;;;;;7342590;19;108724;-90
2022/12/31 06:29:05;;;;;;;;;;;17.60;99.90;;;;;;7348894;19;111432;-90
2022/12/31 06:31:32;;;;;;;;;;;17.60;99.90;;;;;;7339789;19;108651;-89
2022/12/31 06:33:59;;;;;;;;;;;17.60;99.90;;;;;;7346016;19;109151;-91
2022/12/31 06:36:26;;;;;;;;;;;17.50;99.90;;;;;;7340039;19;109857;-90
2022/12/31 06:38:53;;;;;;;;;;;17.60;99.90;;;;;;7341285;19;108695;-90
2022/12/31 06:41:20;;;;;;;;;;;17.70;99.90;;;;;;7344151;19;109501;-89
2022/12/31 06:43:47;;;;;;;;;;;17.70;99.90;;;;;;7343374;19;111068;-90
2022/12/31 06:46:16;;;;;;;;;;;17.60;99.90;;;;;;7339761;19;108557;-89
2022/12/31 06:48:43;;;;;;;;;;;17.60;99.90;;;;;;7341741;19;109403;-90
2022/12/31 06:51:14;;;;;;;;;;;17.50;99.90;;;;;;7345224;19;110624;-91
2022/12/31 06:53:47;;;;;;;;;;;17.50;99.90;;;;;;7343325;19;109170;-89
2022/12/31 06:56:19;;;;;;;;;;;17.50;99.90;;;;;;7341212;19;113784;-91
2022/12/31 06:58:46;;;;;;;;;;;17.50;99.90;;;;;;7340903;19;108560;-89
2022/12/31 07:01:19;;;;;;;;;;;17.40;99.90;;;;;;7341323;19;109414;-90
2022/12/31 07:03:55;;;;;;;;;;;17.50;99.90;;;;;;7341108;19;113908;-89
2022/12/31 07:06:25;;;;;;;;;;;17.40;99.90;;;;;;7340432;19;108357;-91
2022/12/31 07:08:57;;;;;;;;;;;17.40;99.90;;;;;;7340878;19;109255;-90
2022/12/31 07:12:00;;;;;;;;;;;17.30;99.90;;;;;;7346454;19;110352;-90
2022/12/31 07:14:29;;;;;;;;;;;17.30;99.90;;;;;;7348526;19;108793;-89
2022/12/31 07:17:15;;;;;;;;;;;17.40;99.90;;;;;;7351702;19;112788;-91
2022/12/31 07:19:42;;;;;;;;;;;17.30;99.90;;;;;;7353246;19;108599;-90
2022/12/31 07:22:12;;;;;;;;;;;17.30;99.90;;;;;;7354184;19;110428;-89
2022/12/31 07:24:39;;;;;;;;;;;17.20;99.90;;;;;;7352677;19;112960;-89
2022/12/31 07:27:06;;;;;;;;;;;17.20;99.90;;;;;;7352669;19;109044;-89
2022/12/31 07:29:51;;;;;;;;;;;17.20;99.90;;;;;;7354265;19;109752;-90
2022/12/31 07:32:36;;;;;;;;;;;17.20;99.90;;;;;;7351915;19;111088;-90
2022/12/31 07:35:09;;;;;;;;;;;17.20;99.90;;;;;;7357200;19;108839;-89
2022/12/31 07:37:54;;;;;;;;;;;17.30;99.90;;;;;;7350181;19;111911;-91
2022/12/31 07:40:24;;;;;;;;;;;17.30;99.90;;;;;;7354662;19;110020;-92
2022/12/31 07:43:23;;;;;;;;;;;17.20;99.90;;;;;;7352645;19;112035;-90
2022/12/31 07:46:05;;;;;;;;;;;17.20;99.90;;;;;;7352550;19;110077;-91
2022/12/31 07:48:32;;;;;;;;;;;17.20;99.90;;;;;;7351395;19;108418;-90
2022/12/31 07:50:59;;;;;;;;;;;17.20;99.90;;;;;;7353115;19;109447;-88
2022/12/31 07:53:26;;;;;;;;;;;17.20;99.90;;;;;;7351027;19;109519;-90
2022/12/31 07:55:58;;;;;;;;;;;17.20;99.90;;;;;;7352124;19;108373;-92
2022/12/31 07:58:28;;;;;;;;;;;17.20;99.90;;;;;;7361006;19;111453;-95
2022/12/31 08:00:56;;;;;;;;;;;17.20;99.90;;;;;;7350042;19;108200;-89
2022/12/31 08:03:33;;;;;;;;;;;17.10;99.90;;;;;;7351002;19;111631;-89
2022/12/31 08:06:38;;;;;;;;;;;17.20;99.90;;;;;;7349303;19;113504;-89
2022/12/31 08:09:17;;;;;;;;;;;17.10;99.90;;;;;;7350713;19;109381;-89
2022/12/31 08:11:58;;;;;;;;;;;17.20;99.90;;;;;;7352496;19;109296;-90
2022/12/31 08:14:25;;;;;;;;;;;17.10;99.90;;;;;;7348723;19;110309;-88
2022/12/31 08:16:53;;;;;;;;;;;17.20;99.90;;;;;;7348330;19;108600;-89
2022/12/31 08:19:24;;;;;;;;;;;17.20;99.90;;;;;;7348000;19;109617;-88
2022/12/31 08:21:54;;;;;;;;;;;17.10;99.90;;;;;;7355785;19;109955;-88
2022/12/31 08:24:35;;;;;;;;;;;17.20;99.90;;;;;;7347610;19;109083;-89
2022/12/31 08:27:07;;;;;;;;;;;17.10;99.90;;;;;;7342010;19;110490;-89
2022/12/31 08:29:52;;;;;;;;;;;17.20;99.90;;;;;;7340750;19;109889;-88
2022/12/31 08:32:34;;;;;;;;;;;17.20;99.90;;;;;;7341810;19;109842;-90
2022/12/31 08:35:01;;;;;;;;;;;17.20;99.90;;;;;;7340961;19;110686;-89
2022/12/31 08:37:35;;;;;;;;;;;17.30;99.90;;;;;;7344425;19;108423;-92
2022/12/31 08:40:02;;;;;;;;;;;17.30;99.90;;;;;;7342839;19;112363;-90
2022/12/31 08:42:49;;;;;;;;;;;17.30;99.90;;;;;;7343276;19;110276;-89
2022/12/31 08:45:24;;;;;;;;;;;17.30;99.90;;;;;;7346141;19;108478;-89
2022/12/31 08:48:01;;;;;;;;;;;17.30;99.90;;;;;;7344563;19;110228;-88
2022/12/31 08:50:28;;;;;;;;;;;17.30;99.90;;;;;;7341906;19;108742;-90
2022/12/31 08:52:55;;;;;;;;;;;17.30;99.90;;;;;;7343061;19;108644;-90
2022/12/31 08:55:22;;;;;;;;;;;17.40;99.90;;;;;;7343774;19;110322;-89
2022/12/31 08:57:52;;;;;;;;;;;17.30;99.90;;;;;;7344756;19;110287;-88
2022/12/31 09:00:19;;;;;;;;;;;17.50;99.90;;;;;;7343425;19;109420;-91
2022/12/31 09:02:47;;;;;;;;;;;17.50;99.90;;;;;;7350465;19;111724;-90
2022/12/31 09:05:24;;;;;;;;;;;17.50;99.90;;;;;;7351949;19;108388;-89
2022/12/31 09:07:57;;;;;;;;;;;17.50;99.90;;;;;;7356309;19;109247;-90
2022/12/31 09:10:33;;;;;;;;;;;17.50;99.90;;;;;;7350169;19;108082;-89
2022/12/31 09:13:18;;;;;;;;;;;17.50;99.90;;;;;;7349263;19;108653;-88
2022/12/31 09:15:51;;;;;;;;;;;17.60;99.90;;;;;;7345934;19;110196;-88
2022/12/31 09:18:18;;;;;;;;;;;17.60;99.90;;;;;;7348524;19;109182;-89
2022/12/31 09:20:45;;;;;;;;;;;17.60;99.90;;;;;;7352330;19;111331;-90
2022/12/31 09:23:12;;;;;;;;;;;17.60;99.90;;;;;;7350992;19;111820;-88
2022/12/31 09:25:45;;;;;;;;;;;17.70;99.90;;;;;;7347662;19;108891;-90
2022/12/31 09:28:15;;;;;;;;;;;17.60;99.90;;;;;;7364667;19;108840;-88
2022/12/31 09:30:55;;;;;;;;;;;17.70;99.90;;;;;;7358742;19;108487;-88
2022/12/31 09:33:47;;;;;;;;;;;17.70;99.90;;;;;;7350978;19;111931;-89
2022/12/31 09:36:22;;;;;;;;;;;17.60;99.90;;;;;;7358036;19;110722;-89
2022/12/31 09:39:09;;;;;;;;;;;17.70;99.90;;;;;;7355893;19;108755;-87
2022/12/31 09:41:45;;;;;;;;;;;17.80;99.90;;;;;;7359112;19;111205;-88
2022/12/31 09:44:18;;;;;;;;;;;17.80;99.90;;;;;;7365379;19;109212;-87
2022/12/31 09:46:51;;;;;;;;;;;17.80;99.90;;;;;;7361374;19;109162;-89
2022/12/31 09:49:37;;;;;;;;;;;17.80;99.90;;;;;;7364646;19;108592;-87
2022/12/31 09:52:07;;;;;;;;;;;17.80;99.90;;;;;;7365769;19;109312;-87
2022/12/31 09:54:37;;;;;;;;;;;17.60;99.90;;;;;;7361320;19;109509;-87
2022/12/31 09:57:23;;;;;;;;;;;17.60;99.90;;;;;;7358491;19;113193;-89
2022/12/31 09:59:58;;;;;;;;;;;17.70;99.90;;;;;;7366275;19;108816;-87
2022/12/31 10:02:24;;;;;;;;;;;17.70;99.90;;;;;;7364544;19;110128;-90
2022/12/31 10:04:59;;;;;;;;;;;17.70;99.90;;;;;;7364316;19;109154;-88
2022/12/31 10:07:26;;;;;;;;;;;17.70;99.90;;;;;;7373407;19;108137;-89
2022/12/31 10:09:53;;;;;;;;;;;17.70;99.90;;;;;;7365474;19;110477;-87
2022/12/31 10:12:20;;;;;;;;;;;17.80;99.90;;;;;;7354270;19;113423;-86
2022/12/31 10:15:07;;;;;;;;;;;17.70;99.90;;;;;;7366677;19;108550;-89
2022/12/31 10:17:40;;;;;;;;;;;17.80;99.90;;;;;;7362473;19;109220;-88
2022/12/31 10:20:22;;;;;;;;;;;17.70;99.90;;;;;;7373674;19;108094;-88
2022/12/31 10:23:03;;;;;;;;;;;17.80;99.90;;;;;;7365546;19;110463;-86
2022/12/31 10:25:49;;;;;;;;;;;17.80;99.90;;;;;;7362061;19;108836;-89
2022/12/31 10:28:35;;;;;;;;;;;17.80;99.90;;;;;;7361854;19;108905;-92
2022/12/31 10:31:05;;;;;;;;;;;17.80;99.90;;;;;;7369831;19;108079;-90
2022/12/31 10:33:41;;;;;;;;;;;17.80;99.90;;;;;;7354390;19;109590;-87
2022/12/31 10:36:17;;;;;;;;;;;17.80;99.90;;;;;;7359046;19;109715;-88
2022/12/31 10:39:06;;;;;;;;;;;17.70;99.90;;;;;;7372618;19;108408;-88
2022/12/31 10:42:05;;;;;;;;;;;17.80;99.90;;;;;;7367128;19;108748;-88
2022/12/31 10:44:32;;;;;;;;;;;17.80;99.90;;;;;;7342786;19;108780;-90
2022/12/31 10:47:09;;;;;;;;;;;17.70;99.90;;;;;;7344539;19;112584;-89
2022/12/31 10:49:55;;;;;;;;;;;17.80;99.90;;;;;;7344040;19;108515;-88
2022/12/31 10:52:31;;;;;;;;;;;17.80;99.90;;;;;;7339415;19;109837;-88
2022/12/31 10:55:24;;;;;;;;;;;18.00;99.90;;;;;;7335757;19;110976;-89
2022/12/31 10:58:07;;;;;;;;;;;17.90;99.90;;;;;;7336419;19;109245;-90
2022/12/31 11:01:00;;;;;;;;;;;17.90;99.90;;;;;;7335969;19;109303;-88
2022/12/31 11:03:38;;;;;;;;;;;17.80;99.90;;;;;;7340755;19;111033;-90
2022/12/31 11:06:34;;;;;;;;;;;17.80;99.90;;;;;;7337604;19;112702;-89
2022/12/31 11:09:20;;;;;;;;;;;17.80;99.90;;;;;;7335207;19;111082;-89
2022/12/31 11:11:47;;;;;;;;;;;17.90;99.90;;;;;;7339129;19;109311;-90
2022/12/31 11:14:20;;;;;;;;;;;17.90;99.90;;;;;;7338121;19;110113;-91
2022/12/31 11:16:47;;;;;;;;;;;18.00;99.90;;;;;;7341449;19;110509;-92
2022/12/31 11:19:26;;;;;;;;;;;18.00;99.90;;;;;;7348020;19;108541;-94
2022/12/31 11:22:11;;;;;;;;;;;18.20;99.90;;;;;;7349887;19;111389;-93
2022/12/31 11:24:50;;;;;;;;;;;18.00;99.90;;;;;;7356285;19;113093;-95
2022/12/31 11:27:37;;;;;;;;;;;18.00;99.90;;;;;;7366819;19;107834;-95
2022/12/31 11:30:05;;;;;;;;;;;18.10;99.90;;;;;;7351974;19;111330;-94
2022/12/31 11:32:45;;;;;;;;;;;18.10;99.90;;;;;;7360138;19;108728;-94
2022/12/31 11:35:15;;;;;;;;;;;18.00;99.90;;;;;;7354866;19;110066;-96
2022/12/31 11:37:46;;;;;;;;;;;18.00;99.90;;;;;;7359147;19;112253;-95
2022/12/31 11:40:35;;;;;;;;;;;18.10;99.90;;;;;;7351002;19;108265;-93
2022/12/31 11:43:08;;;;;;;;;;;18.00;99.90;;;;;;7351727;19;111868;-93
2022/12/31 11:45:38;;;;;;;;;;;17.90;99.90;;;;;;7337767;19;113106;-90
2022/12/31 11:48:26;;;;;;;;;;;17.90;99.90;;;;;;7346429;19;108617;-92
2022/12/31 11:51:26;;;;;;;;;;;17.80;99.90;;;;;;7339237;19;113199;-92
2022/12/31 11:54:11;;;;;;;;;;;17.80;99.90;;;;;;7340094;19;108404;-90
2022/12/31 11:56:44;;;;;;;;;;;17.70;99.90;;;;;;7355203;19;109572;-94
2022/12/31 11:59:13;;;;;;;;;;;17.60;99.90;;;;;;7353424;19;110517;-93
2022/12/31 12:01:50;;;;;;;;;;;17.60;99.90;;;;;;7352982;19;108132;-93
2022/12/31 12:04:17;;;;;;;;;;;17.60;99.90;;;;;;7357360;19;108776;-95
2022/12/31 12:06:45;;;;;;;;;;;17.60;99.90;;;;;;7364798;19;110671;-95
2022/12/31 12:09:15;;;;;;;;;;;17.50;99.90;;;;;;7357085;19;109080;-91
2022/12/31 12:11:42;;;;;;;;;;;17.60;99.90;;;;;;7355641;19;110125;-91
2022/12/31 12:14:42;;;;;;;;;;;17.50;99.90;;;;;;7346828;19;108722;-91
2022/12/31 12:17:31;;;;;;;;;;;17.50;99.90;;;;;;7344414;19;109153;-90
2022/12/31 12:20:14;;;;;;;;;;;17.50;99.90;;;;;;7352639;19;110709;-92
2022/12/31 12:22:51;;;;;;;;;;;17.50;99.90;;;;;;7350600;19;108480;-91
2022/12/31 12:25:19;;;;;;;;;;;17.50;99.90;;;;;;7354485;19;111894;-92
2022/12/31 12:27:47;;;;;;;;;;;17.50;99.90;;;;;;7351147;19;108235;-92
2022/12/31 12:30:18;;;;;;;;;;;17.60;99.90;;;;;;7352135;19;108517;-94
2022/12/31 12:32:51;;;;;;;;;;;17.50;99.90;;;;;;7347802;19;108569;-91
2022/12/31 12:35:22;;;;;;;;;;;17.50;99.90;;;;;;7348066;19;112821;-91
2022/12/31 12:37:57;;;;;;;;;;;17.60;99.90;;;;;;7345675;19;111577;-93
2022/12/31 12:40:24;;;;;;;;;;;17.60;99.90;;;;;;7344444;19;109321;-91
2022/12/31 12:43:00;;;;;;;;;;;17.60;99.90;;;;;;7349455;19;108139;-93
2022/12/31 12:45:34;;;;;;;;;;;17.70;99.90;;;;;;7349594;19;109969;-92
2022/12/31 12:48:06;;;;;;;;;;;17.70;99.90;;;;;;7351728;19;109066;-91
2022/12/31 12:50:40;;;;;;;;;;;17.90;99.90;;;;;;7356324;19;108633;-93
2022/12/31 12:53:13;;;;;;;;;;;17.80;99.90;;;;;;7367032;19;109861;-95
2022/12/31 12:55:46;;;;;;;;;;;17.70;99.90;;;;;;7371931;19;111563;-93
2022/12/31 12:58:22;;;;;;;;;;;17.70;99.90;;;;;;7356354;19;108560;-91
2022/12/31 13:00:49;;;;;;;;;;;17.80;99.90;;;;;;7344605;19;112994;-95
2022/12/31 13:03:22;;;;;;;;;;;17.70;99.90;;;;;;7349811;19;109632;-94
2022/12/31 13:05:52;;;;;;;;;;;17.70;99.90;;;;;;7351067;19;109586;-94
2022/12/31 13:08:31;;;;;;;;;;;17.60;99.90;;;;;;7347219;19;109986;-94
2022/12/31 13:11:25;;;;;;;;;;;17.60;99.90;;;;;;7348311;19;110309;-94
2022/12/31 13:14:02;;;;;;;;;;;17.60;99.90;;;;;;7342877;19;111247;-91
2022/12/31 13:16:35;;;;;;;;;;;17.50;99.90;;;;;;7339682;19;112988;-93
2022/12/31 13:19:15;;;;;;;;;;;17.60;99.90;;;;;;7333951;19;108695;-91
2022/12/31 13:21:58;;;;;;;;;;;17.50;99.90;;;;;;7345215;19;110844;-93
2022/12/31 13:24:43;;;;;;;;;;;17.50;99.90;;;;;;7340188;19;108917;-93
2022/12/31 13:27:49;;;;;;;;;;;17.50;99.90;;;;;;7344505;19;110770;-93
2022/12/31 13:30:18;;;;;;;;;;;17.50;99.90;;;;;;7339579;19;113126;-93
2022/12/31 13:32:47;;;;;;;;;;;17.50;99.90;;;;;;7339245;19;108493;-93
2022/12/31 13:35:28;;;;;;;;;;;17.50;99.90;;;;;;7339431;19;109265;-91
2022/12/31 13:38:17;;;;;;;;;;;17.50;99.90;;;;;;7344090;19;109642;-91
2022/12/31 13:40:56;;;;;;;;;;;17.40;99.90;;;;;;7351559;19;108460;-91
2022/12/31 13:43:42;;;;;;;;;;;17.50;99.90;;;;;;7345189;19;110845;-93
2022/12/31 13:46:16;;;;;;;;;;;17.50;99.90;;;;;;7337487;19;108402;-92
2022/12/31 13:48:47;;;;;;;;;;;17.40;99.90;;;;;;7342689;19;108537;-92
2022/12/31 13:51:21;;;;;;;;;;;17.50;99.90;;;;;;7340673;19;110680;-93
2022/12/31 13:54:00;;;;;;;;;;;17.50;99.90;;;;;;7339604;19;108868;-92
2022/12/31 13:56:30;;;;;;;;;;;17.50;99.90;;;;;;7341838;19;109473;-94
2022/12/31 13:59:01;;;;;;;;;;;17.40;99.90;;;;;;7340645;19;113398;-96
2022/12/31 14:01:47;;;;;;;;;;;17.40;99.90;;;;;;7343065;19;109761;-92
2022/12/31 14:04:21;;;;;;;;;;;17.40;99.90;;;;;;7343668;19;111825;-94
2022/12/31 14:06:51;;;;;;;;;;;17.40;99.90;;;;;;7350208;19;110158;-94
2022/12/31 14:09:20;;;;;;;;;;;17.40;99.90;;;;;;7344820;19;110062;-93
2022/12/31 14:12:00;;;;;;;;;;;17.50;99.90;;;;;;7345858;19;112636;-92
2022/12/31 14:14:41;;;;;;;;;;;17.40;99.90;;;;;;7347633;19;108266;-94
2022/12/31 14:17:29;;;;;;;;;;;17.40;99.90;;;;;;7347133;19;110772;-94
2022/12/31 14:20:13;;;;;;;;;;;17.40;99.90;;;;;;7341338;19;112935;-95
2022/12/31 14:22:49;;;;;;;;;;;17.40;99.90;;;;;;7343393;19;108518;-94
2022/12/31 14:25:27;;;;;;;;;;;17.40;99.90;;;;;;7343845;19;109080;-95
2022/12/31 14:27:55;;;;;;;;;;;17.40;99.90;;;;;;7341621;19;110435;-94
2022/12/31 14:30:25;;;;;;;;;;;17.40;99.90;;;;;;7347032;19;108535;-93
2022/12/31 14:32:52;;;;;;;;;;;17.40;99.90;;;;;;7342351;19;112576;-93
2022/12/31 14:35:38;;;;;;;;;;;17.40;99.90;;;;;;7341685;19;108513;-93
2022/12/31 14:38:24;;;;;;;;;;;17.40;99.90;;;;;;7339316;19;112263;-90
2022/12/31 14:41:00;;;;;;;;;;;17.50;99.90;;;;;;7336949;19;114000;-90
2022/12/31 14:43:39;;;;;;;;;;;17.50;99.90;;;;;;7339140;19;108433;-89
2022/12/31 14:46:06;;;;;;;;;;;17.50;99.90;;;;;;7338444;19;109296;-90